sim
Sign-in with your pilot id or email,
or register
Callsign
Passwort

Schedule Details

Flight Number: EWG1917 (1)
Departure: Dusseldorf International Airport (EDDL) at 16:00
Arrival: Munich Airport (EDDM) at 17:15
Route: Eurowings Passenger Schedule. Enter filed route here before submitting Pirep.

Weather Information
Getting current METAR information for EDDL 250150Z 18010KT 9999 FEW035 12/10 Q0997 NOSIG
Getting current METAR information for EDDM 250150Z 27005KT 9999 -RA FEW011 SCT040 13/12 Q1002 TEMPO RA BKN008

Schedule Frequency

Route Map